Time;durP1;ratioP1;P1;durP2;ratioP2;P2;SDS_P1;SDS_P2;PMS_P1;PMS_P2;Temp;Humidity;BMP_temperature;BMP_pressure;BME280_temperature;BME280_humidity;BME280_pressure;Samples;Min_cycle;Max_cycle;Signal;HPM_P1;HPM_P2
2024/01/16 00:00:34;;;;;;;;;;;-3.40;99.90;;;;;;4898905;29;19923;-86
2024/01/16 00:03:00;;;;;;;;;;;-3.30;99.90;;;;;;4901331;29;19926;-86
2024/01/16 00:05:26;;;;;;;;;;;-3.30;99.90;;;;;;4916660;29;19923;-86
2024/01/16 00:07:51;;;;;;;;;;;-3.30;99.90;;;;;;4901261;29;19916;-87
2024/01/16 00:13:46;;;;;;;;;;;-3.40;99.90;;;;;;4902267;29;19934;-86
2024/01/16 00:16:12;;;;;;;;;;;-3.40;99.90;;;;;;4885421;29;20002;-86
2024/01/16 00:18:56;;;;;;;;;;;-3.50;99.90;;;;;;4900961;29;19951;-86
2024/01/16 00:21:22;;;;;;;;;;;-3.50;99.90;;;;;;4900461;29;19915;-87
2024/01/16 00:23:47;;;;;;;;;;;-3.50;99.90;;;;;;4884963;29;19972;-84
2024/01/16 00:26:21;;;;;;;;;;;-3.60;99.90;;;;;;4885344;29;19922;-86
2024/01/16 00:28:46;;;;;;;;;;;-3.60;99.90;;;;;;4901175;29;19920;-86
2024/01/16 00:31:12;;;;;;;;;;;-3.60;99.90;;;;;;4885859;29;19994;-86
2024/01/16 00:33:38;;;;;;;;;;;-3.70;99.90;;;;;;4901888;29;19967;-86
2024/01/16 00:36:04;;;;;;;;;;;-3.70;99.90;;;;;;4900587;29;19938;-85
2024/01/16 00:38:32;;;;;;;;;;;-3.70;99.90;;;;;;4916794;29;19923;-87
2024/01/16 00:41:00;;;;;;;;;;;-3.70;99.90;;;;;;4900909;29;19926;-87
2024/01/16 00:43:29;;;;;;;;;;;-3.80;99.90;;;;;;4901013;29;19951;-86
2024/01/16 00:45:55;;;;;;;;;;;-3.90;99.90;;;;;;4899605;29;19970;-86
2024/01/16 00:48:21;;;;;;;;;;;-3.90;99.90;;;;;;4884960;29;19931;-87
2024/01/16 00:50:49;;;;;;;;;;;-3.90;99.90;;;;;;4900164;29;20287;-87
2024/01/16 00:53:18;;;;;;;;;;;-4.00;99.90;;;;;;4881896;29;19927;-86
2024/01/16 00:55:43;;;;;;;;;;;-3.90;99.90;;;;;;4878562;29;19987;-87
2024/01/16 00:58:15;;;;;;;;;;;-3.80;99.90;;;;;;4879217;29;20059;-86
2024/01/16 01:00:40;;;;;;;;;;;-3.80;99.90;;;;;;4878406;29;19919;-86
2024/01/16 01:03:06;;;;;;;;;;;-3.70;99.90;;;;;;4879662;29;19923;-86
2024/01/16 01:05:31;;;;;;;;;;;-3.70;99.90;;;;;;4863710;29;19916;-87
2024/01/16 01:07:57;;;;;;;;;;;-3.70;99.90;;;;;;4878887;29;19936;-87
2024/01/16 01:10:23;;;;;;;;;;;-3.60;99.90;;;;;;4878490;29;20060;-86
2024/01/16 01:12:50;;;;;;;;;;;-3.60;99.90;;;;;;4878135;29;19924;-86
2024/01/16 01:15:16;;;;;;;;;;;-3.50;99.90;;;;;;4879029;29;20005;-86
2024/01/16 01:17:42;;;;;;;;;;;-3.60;99.90;;;;;;4878735;29;19983;-87
2024/01/16 01:20:08;;;;;;;;;;;-3.60;99.90;;;;;;4858605;29;19927;-86
2024/01/16 01:22:34;;;;;;;;;;;-3.50;99.90;;;;;;4878507;29;19920;-87
2024/01/16 01:25:00;;;;;;;;;;;-3.50;99.90;;;;;;4878707;29;20387;-86
2024/01/16 01:27:25;;;;;;;;;;;-3.50;99.90;;;;;;4878145;29;19916;-87
2024/01/16 01:29:51;;;;;;;;;;;-3.50;99.90;;;;;;4878229;29;19916;-87
2024/01/16 01:32:17;;;;;;;;;;;-3.50;99.90;;;;;;4878550;29;19920;-86
2024/01/16 01:34:42;;;;;;;;;;;-3.50;99.90;;;;;;4878811;29;20392;-87
2024/01/16 01:37:08;;;;;;;;;;;-3.60;99.90;;;;;;4879004;29;19962;-86
2024/01/16 01:39:34;;;;;;;;;;;-3.60;99.90;;;;;;4878728;29;19924;-87
2024/01/16 01:41:59;;;;;;;;;;;-3.70;99.90;;;;;;4878157;29;20618;-87
2024/01/16 01:44:25;;;;;;;;;;;-3.70;99.90;;;;;;4862409;29;19915;-87
2024/01/16 01:46:51;;;;;;;;;;;-3.70;99.90;;;;;;4879217;29;19915;-87
2024/01/16 01:49:17;;;;;;;;;;;-3.70;99.90;;;;;;4878547;29;19974;-87
2024/01/16 01:51:43;;;;;;;;;;;-3.70;99.90;;;;;;4862985;29;20575;-87
2024/01/16 01:54:09;;;;;;;;;;;-3.80;99.90;;;;;;4878758;29;19928;-87
2024/01/16 01:56:35;;;;;;;;;;;-3.80;99.90;;;;;;4878207;29;19916;-86
2024/01/16 01:59:01;;;;;;;;;;;-3.80;99.90;;;;;;4877968;29;19947;-87
2024/01/16 02:01:29;;;;;;;;;;;-3.80;99.90;;;;;;4878398;29;19916;-87
2024/01/16 02:03:56;;;;;;;;;;;-3.80;99.90;;;;;;4878616;29;19915;-87
2024/01/16 02:06:22;;;;;;;;;;;-3.80;99.90;;;;;;4878224;29;19956;-87
2024/01/16 02:08:48;;;;;;;;;;;-3.80;99.90;;;;;;4877273;29;20411;-87
2024/01/16 02:11:13;;;;;;;;;;;-3.80;99.90;;;;;;4878717;29;19926;-87
2024/01/16 02:13:39;;;;;;;;;;;-3.80;99.90;;;;;;4862513;29;20636;-87
2024/01/16 02:16:05;;;;;;;;;;;-3.80;99.90;;;;;;4878154;29;19919;-86
2024/01/16 02:18:31;;;;;;;;;;;-3.80;99.90;;;;;;4862718;29;21852;-87
2024/01/16 02:21:03;;;;;;;;;;;-3.80;99.90;;;;;;4877981;29;19951;-87
2024/01/16 02:23:29;;;;;;;;;;;-3.80;99.90;;;;;;4878501;29;20811;-87
2024/01/16 02:25:55;;;;;;;;;;;-3.80;99.90;;;;;;4877864;29;19980;-87
2024/01/16 02:28:20;;;;;;;;;;;-3.80;99.90;;;;;;4878049;29;19920;-87
2024/01/16 02:30:46;;;;;;;;;;;-3.90;99.90;;;;;;4877694;29;19940;-87
2024/01/16 02:33:12;;;;;;;;;;;-3.90;99.90;;;;;;4877429;29;19916;-87
2024/01/16 02:35:37;;;;;;;;;;;-4.00;99.90;;;;;;4877324;29;19926;-87
2024/01/16 02:38:04;;;;;;;;;;;-4.00;99.90;;;;;;4877559;29;19998;-86
2024/01/16 02:40:30;;;;;;;;;;;-4.00;99.90;;;;;;4877597;29;19930;-87
2024/01/16 02:42:55;;;;;;;;;;;-4.10;99.90;;;;;;4877821;29;20376;-86
2024/01/16 02:45:21;;;;;;;;;;;-4.20;99.90;;;;;;4877879;29;20387;-87
2024/01/16 02:47:47;;;;;;;;;;;-4.20;99.90;;;;;;4877822;29;19920;-87
2024/01/16 02:50:13;;;;;;;;;;;-4.20;99.90;;;;;;4877480;29;20014;-86
2024/01/16 02:52:39;;;;;;;;;;;-4.20;99.90;;;;;;4877546;29;19919;-86
2024/01/16 02:55:05;;;;;;;;;;;-4.10;99.90;;;;;;4877676;29;19923;-87
2024/01/16 02:57:30;;;;;;;;;;;-4.10;99.90;;;;;;4877445;29;19922;-87
2024/01/16 02:59:56;;;;;;;;;;;-4.10;99.90;;;;;;4877079;29;19971;-87
2024/01/16 03:02:23;;;;;;;;;;;-4.20;99.90;;;;;;4877470;29;19941;-87
2024/01/16 03:04:49;;;;;;;;;;;-4.40;99.90;;;;;;4878604;29;19920;-87
2024/01/16 03:07:14;;;;;;;;;;;-4.50;99.90;;;;;;4877594;29;20383;-87
2024/01/16 03:09:40;;;;;;;;;;;-4.60;99.90;;;;;;4877355;29;19919;-87
2024/01/16 03:12:06;;;;;;;;;;;-4.70;99.90;;;;;;4876843;29;19970;-87
2024/01/16 03:14:34;;;;;;;;;;;-4.80;99.90;;;;;;4878760;29;19971;-87
2024/01/16 03:17:02;;;;;;;;;;;-4.70;99.90;;;;;;4876144;29;20010;-87
2024/01/16 03:19:28;;;;;;;;;;;-4.70;99.90;;;;;;4876362;29;19924;-86
2024/01/16 03:21:54;;;;;;;;;;;-4.60;99.90;;;;;;4877187;29;19926;-87
2024/01/16 03:24:20;;;;;;;;;;;-4.60;99.90;;;;;;4861409;29;19979;-87
2024/01/16 03:26:45;;;;;;;;;;;-4.50;99.90;;;;;;4877322;29;19919;-86
2024/01/16 03:29:11;;;;;;;;;;;-4.50;99.90;;;;;;4877206;29;19926;-86
2024/01/16 03:31:36;;;;;;;;;;;-4.40;99.90;;;;;;4872876;29;19916;-86
2024/01/16 03:34:02;;;;;;;;;;;-4.50;99.90;;;;;;4877230;29;19922;-87
2024/01/16 03:36:27;;;;;;;;;;;-4.50;99.90;;;;;;4877111;29;20015;-87
2024/01/16 03:38:53;;;;;;;;;;;-4.50;99.90;;;;;;4861035;29;19924;-86
2024/01/16 03:41:19;;;;;;;;;;;-4.50;99.90;;;;;;4876601;29;20378;-87
2024/01/16 03:43:44;;;;;;;;;;;-4.50;99.90;;;;;;4876141;29;19920;-87
2024/01/16 03:46:13;;;;;;;;;;;-4.60;99.90;;;;;;4876719;29;19998;-87
2024/01/16 03:48:39;;;;;;;;;;;-4.70;99.90;;;;;;4877286;29;20349;-87
2024/01/16 03:51:08;;;;;;;;;;;-4.70;99.90;;;;;;4861331;29;19926;-87
2024/01/16 03:53:34;;;;;;;;;;;-4.60;99.90;;;;;;4876975;29;19932;-87
2024/01/16 03:55:59;;;;;;;;;;;-4.50;99.90;;;;;;4876052;29;20303;-87
2024/01/16 03:58:25;;;;;;;;;;;-4.50;99.90;;;;;;4876572;29;19927;-87
2024/01/16 04:00:51;;;;;;;;;;;-4.50;99.90;;;;;;4876225;29;20283;-88
2024/01/16 04:03:17;;;;;;;;;;;-4.40;99.90;;;;;;4877744;29;19962;-87
2024/01/16 04:05:42;;;;;;;;;;;-4.30;99.90;;;;;;4878001;29;19924;-87
2024/01/16 04:08:08;;;;;;;;;;;-4.30;99.90;;;;;;4876369;29;19924;-86
2024/01/16 04:10:34;;;;;;;;;;;-4.30;99.90;;;;;;4876560;29;20030;-86
2024/01/16 04:13:02;;;;;;;;;;;-4.20;99.90;;;;;;4877122;29;19923;-87
2024/01/16 04:15:28;;;;;;;;;;;-4.20;99.90;;;;;;4861167;29;20277;-87
2024/01/16 04:17:54;;;;;;;;;;;-4.20;99.90;;;;;;4877164;29;19967;-87
2024/01/16 04:20:20;;;;;;;;;;;-4.30;99.90;;;;;;4876707;29;19943;-87
2024/01/16 04:22:45;;;;;;;;;;;-4.30;99.90;;;;;;4876170;29;19920;-86
2024/01/16 04:25:11;;;;;;;;;;;-4.30;99.90;;;;;;4861376;29;19920;-87
2024/01/16 04:27:36;;;;;;;;;;;-4.30;99.90;;;;;;4876539;29;20006;-86
2024/01/16 04:30:02;;;;;;;;;;;-4.40;99.90;;;;;;4879481;29;20011;-87
2024/01/16 04:32:28;;;;;;;;;;;-4.30;99.90;;;;;;4880677;29;19923;-86
2024/01/16 04:34:54;;;;;;;;;;;-4.20;99.90;;;;;;4879653;29;19920;-87
2024/01/16 04:37:19;;;;;;;;;;;-4.20;99.90;;;;;;4879055;29;20447;-86
2024/01/16 04:39:45;;;;;;;;;;;-4.20;99.90;;;;;;4880291;29;19924;-87
2024/01/16 04:42:11;;;;;;;;;;;-4.20;99.90;;;;;;4864595;29;20303;-87
2024/01/16 04:44:37;;;;;;;;;;;-4.20;99.90;;;;;;4879695;29;20394;-86
2024/01/16 04:47:02;;;;;;;;;;;-4.30;99.90;;;;;;4879547;29;19920;-86
2024/01/16 04:49:28;;;;;;;;;;;-4.30;99.90;;;;;;4881239;29;20284;-87
2024/01/16 04:51:54;;;;;;;;;;;-4.40;99.90;;;;;;4880205;29;19920;-87
2024/01/16 04:54:20;;;;;;;;;;;-4.50;99.90;;;;;;4879391;29;20386;-87
2024/01/16 04:56:46;;;;;;;;;;;-4.60;99.90;;;;;;4878889;29;19916;-87
2024/01/16 04:59:14;;;;;;;;;;;-4.60;99.90;;;;;;4878911;29;19927;-86
2024/01/16 05:01:40;;;;;;;;;;;-4.50;99.90;;;;;;4864602;29;19923;-87
2024/01/16 05:04:07;;;;;;;;;;;-4.60;99.90;;;;;;4879505;29;19920;-86
2024/01/16 05:06:34;;;;;;;;;;;-4.50;99.90;;;;;;4878727;29;20563;-87
2024/01/16 05:09:00;;;;;;;;;;;-4.50;99.90;;;;;;4879099;29;19948;-87
2024/01/16 05:11:25;;;;;;;;;;;-4.40;99.90;;;;;;4880760;29;19915;-86
2024/01/16 05:13:57;;;;;;;;;;;-4.50;99.90;;;;;;4879372;29;20015;-86
2024/01/16 05:16:23;;;;;;;;;;;-4.50;99.90;;;;;;4879230;29;19920;-86
2024/01/16 05:18:49;;;;;;;;;;;-4.60;99.90;;;;;;4879565;29;19932;-87
2024/01/16 05:21:14;;;;;;;;;;;-4.60;99.90;;;;;;4879378;29;20026;-87
2024/01/16 05:23:46;;;;;;;;;;;-4.70;99.90;;;;;;4879059;29;19999;-87
2024/01/16 05:29:41;;;;;;;;;;;-4.70;99.90;;;;;;4880761;29;20293;-87
2024/01/16 05:32:06;;;;;;;;;;;-4.80;99.90;;;;;;4879701;29;19919;-87
2024/01/16 05:34:32;;;;;;;;;;;-4.80;99.90;;;;;;4879335;29;19963;-86
2024/01/16 05:36:58;;;;;;;;;;;-4.90;99.90;;;;;;4879394;29;19938;-87
2024/01/16 05:39:23;;;;;;;;;;;-4.90;99.90;;;;;;4878810;29;20681;-87
2024/01/16 05:41:49;;;;;;;;;;;-5.00;99.90;;;;;;4878815;29;19919;-87
2024/01/16 05:44:15;;;;;;;;;;;-5.00;99.90;;;;;;4879771;29;20428;-87
2024/01/16 05:46:41;;;;;;;;;;;-5.00;99.90;;;;;;4878730;29;19923;-87
2024/01/16 05:49:16;;;;;;;;;;;-5.10;99.90;;;;;;4863694;29;19916;-87
2024/01/16 05:51:41;;;;;;;;;;;-5.00;99.90;;;;;;4864164;29;19904;-87
2024/01/16 05:54:07;;;;;;;;;;;-5.10;99.90;;;;;;4878880;29;19919;-87
2024/01/16 05:57:00;;;;;;;;;;;-5.20;99.90;;;;;;4878469;29;19919;-87
2024/01/16 05:59:26;;;;;;;;;;;-5.20;99.90;;;;;;4874154;29;20608;-87
2024/01/16 06:01:52;;;;;;;;;;;-5.40;99.90;;;;;;4879558;29;19987;-87
2024/01/16 06:04:18;;;;;;;;;;;-5.50;99.90;;;;;;4863628;29;19994;-87
2024/01/16 06:06:58;;;;;;;;;;;-5.60;99.90;;;;;;4879108;29;19919;-87
2024/01/16 06:12:53;;;;;;;;;;;-5.50;99.90;;;;;;4880020;29;19927;-87
2024/01/16 06:15:18;;;;;;;;;;;-5.40;99.90;;;;;;4878608;29;19924;-87
2024/01/16 06:17:44;;;;;;;;;;;-5.30;99.90;;;;;;4878967;29;19963;-87
2024/01/16 06:20:10;;;;;;;;;;;-5.30;99.90;;;;;;4878775;29;19920;-87
2024/01/16 06:22:36;;;;;;;;;;;-5.20;99.90;;;;;;4878905;29;19916;-86
2024/01/16 06:25:02;;;;;;;;;;;-5.10;99.90;;;;;;4863107;29;20095;-87
2024/01/16 06:30:56;;;;;;;;;;;-5.10;99.90;;;;;;4879816;29;19966;-87
2024/01/16 06:33:21;;;;;;;;;;;-5.10;99.90;;;;;;4862968;29;19959;-87
2024/01/16 06:35:47;;;;;;;;;;;-5.20;99.90;;;;;;4878741;29;19924;-86
2024/01/16 06:38:12;;;;;;;;;;;-5.10;99.90;;;;;;4878672;29;19916;-87
2024/01/16 06:40:38;;;;;;;;;;;-5.20;99.90;;;;;;4878442;29;20402;-87
2024/01/16 06:43:03;;;;;;;;;;;-5.20;99.90;;;;;;4878229;29;19915;-87
2024/01/16 06:45:29;;;;;;;;;;;-5.20;99.90;;;;;;4878464;29;19920;-87
2024/01/16 06:47:55;;;;;;;;;;;-5.20;99.90;;;;;;4878748;29;19916;-86
2024/01/16 06:50:20;;;;;;;;;;;-5.20;99.90;;;;;;4876959;29;19974;-87
2024/01/16 06:52:46;;;;;;;;;;;-5.20;99.90;;;;;;4876590;29;19927;-87
2024/01/16 06:55:11;;;;;;;;;;;-5.20;99.90;;;;;;4877249;29;19940;-87
2024/01/16 06:57:37;;;;;;;;;;;-5.10;99.90;;;;;;4878853;29;19916;-86
2024/01/16 07:00:03;;;;;;;;;;;-5.10;99.90;;;;;;4877457;29;19920;-87
2024/01/16 07:02:28;;;;;;;;;;;-5.10;99.90;;;;;;4878001;29;19980;-86
2024/01/16 07:04:54;;;;;;;;;;;-5.10;99.90;;;;;;4877711;29;20332;-87
2024/01/16 07:07:20;;;;;;;;;;;-5.10;99.90;;;;;;4877807;29;20288;-87
2024/01/16 07:09:45;;;;;;;;;;;-5.00;99.90;;;;;;4878179;29;20280;-87
2024/01/16 07:12:11;;;;;;;;;;;-4.90;99.90;;;;;;4878379;29;19920;-87
2024/01/16 07:14:39;;;;;;;;;;;-4.90;99.90;;;;;;4877052;29;19923;-86
2024/01/16 07:17:07;;;;;;;;;;;-4.80;99.90;;;;;;4876463;29;19919;-83
2024/01/16 07:19:33;;;;;;;;;;;-4.80;99.90;;;;;;4876329;29;20308;-83
2024/01/16 07:21:59;;;;;;;;;;;-4.70;99.90;;;;;;4876092;29;19920;-84
2024/01/16 07:24:24;;;;;;;;;;;-4.60;99.90;;;;;;4881293;29;19903;-84
2024/01/16 07:26:50;;;;;;;;;;;-4.70;99.90;;;;;;4864761;29;20578;-84
2024/01/16 07:29:16;;;;;;;;;;;-4.60;99.90;;;;;;4877312;29;19972;-83
2024/01/16 07:31:41;;;;;;;;;;;-4.70;99.90;;;;;;4877276;29;19927;-84
2024/01/16 07:34:07;;;;;;;;;;;-4.70;99.90;;;;;;4876112;29;19916;-84
2024/01/16 07:36:32;;;;;;;;;;;-4.70;99.90;;;;;;4876897;29;20645;-84
2024/01/16 07:38:58;;;;;;;;;;;-4.70;99.90;;;;;;4876683;29;19928;-84
2024/01/16 07:41:24;;;;;;;;;;;-4.70;99.90;;;;;;4861287;29;19924;-83
2024/01/16 07:43:49;;;;;;;;;;;-4.70;99.90;;;;;;4876551;29;19915;-83
2024/01/16 07:46:16;;;;;;;;;;;-4.60;99.90;;;;;;4876464;29;19958;-83
2024/01/16 07:48:41;;;;;;;;;;;-4.60;99.90;;;;;;4877464;29;19938;-84
2024/01/16 07:51:07;;;;;;;;;;;-4.50;99.90;;;;;;4876336;29;20368;-84
2024/01/16 07:53:33;;;;;;;;;;;-4.40;99.90;;;;;;4860792;29;19963;-84
2024/01/16 07:55:58;;;;;;;;;;;-4.40;99.90;;;;;;4875928;29;19923;-83
2024/01/16 07:58:24;;;;;;;;;;;-4.40;99.90;;;;;;4876274;29;20258;-84
2024/01/16 08:00:50;;;;;;;;;;;-4.40;99.90;;;;;;4875299;29;19931;-84
2024/01/16 08:03:15;;;;;;;;;;;-4.40;99.90;;;;;;4875993;29;19967;-84
2024/01/16 08:05:41;;;;;;;;;;;-4.30;99.90;;;;;;4879491;29;20394;-84
2024/01/16 08:08:10;;;;;;;;;;;-4.20;99.90;;;;;;4879620;29;19915;-84
2024/01/16 08:10:39;;;;;;;;;;;-4.20;99.90;;;;;;4879695;29;19916;-84
2024/01/16 08:13:05;;;;;;;;;;;-4.00;99.90;;;;;;4880312;29;20574;-83
2024/01/16 08:15:31;;;;;;;;;;;-3.90;99.90;;;;;;4879841;29;20645;-82
2024/01/16 08:17:57;;;;;;;;;;;-3.80;99.90;;;;;;4880154;29;19916;-84
2024/01/16 08:20:23;;;;;;;;;;;-3.70;99.90;;;;;;4880290;29;19931;-84
2024/01/16 08:22:50;;;;;;;;;;;-3.60;99.90;;;;;;4879766;29;19927;-84
2024/01/16 08:25:15;;;;;;;;;;;-3.50;99.90;;;;;;4880279;29;20283;-83
2024/01/16 08:27:43;;;;;;;;;;;-3.40;99.90;;;;;;4879855;29;19916;-84
2024/01/16 08:30:09;;;;;;;;;;;-3.30;99.90;;;;;;4880763;29;19919;-84
2024/01/16 08:32:35;;;;;;;;;;;-3.20;99.90;;;;;;4880212;29;19966;-84
2024/01/16 08:35:01;;;;;;;;;;;-3.00;99.90;;;;;;4879702;29;19963;-83
2024/01/16 08:37:26;;;;;;;;;;;-3.00;99.90;;;;;;4879889;29;19920;-84
2024/01/16 08:39:52;;;;;;;;;;;-2.90;99.90;;;;;;4880035;29;19923;-84
2024/01/16 08:42:18;;;;;;;;;;;-2.80;99.90;;;;;;4864554;29;20002;-84
2024/01/16 08:44:43;;;;;;;;;;;-2.80;99.90;;;;;;4879608;29;20038;-84
2024/01/16 08:50:38;;;;;;;;;;;-2.70;99.90;;;;;;4880679;29;19927;-83
2024/01/16 08:53:05;;;;;;;;;;;-2.60;99.90;;;;;;4878508;29;20010;-84
2024/01/16 08:55:31;;;;;;;;;;;-2.60;99.90;;;;;;4879110;29;19982;-84
2024/01/16 08:57:56;;;;;;;;;;;-2.50;99.90;;;;;;4878876;29;19963;-84
2024/01/16 09:00:22;;;;;;;;;;;-2.40;99.90;;;;;;4878987;29;19979;-84
2024/01/16 09:02:48;;;;;;;;;;;-2.40;99.90;;;;;;4878603;29;19955;-84
2024/01/16 09:05:14;;;;;;;;;;;-2.30;99.90;;;;;;4879449;29;19920;-84
2024/01/16 09:07:40;;;;;;;;;;;-2.20;99.90;;;;;;4878923;29;20608;-84
2024/01/16 09:10:06;;;;;;;;;;;-2.10;99.90;;;;;;4862941;29;20007;-84
2024/01/16 09:12:32;;;;;;;;;;;-2.00;99.90;;;;;;4878524;29;19924;-84
2024/01/16 09:14:58;;;;;;;;;;;-2.00;99.90;;;;;;4878003;29;19920;-84
2024/01/16 09:17:25;;;;;;;;;;;-2.10;99.90;;;;;;4877995;29;19919;-84
2024/01/16 09:20:00;;;;;;;;;;;-2.20;99.90;;;;;;4877845;29;19927;-83
2024/01/16 09:22:25;;;;;;;;;;;-2.10;99.90;;;;;;4862518;29;20444;-84
2024/01/16 09:24:51;;;;;;;;;;;-1.90;99.90;;;;;;4878073;29;19920;-84
2024/01/16 09:27:16;;;;;;;;;;;-2.00;99.90;;;;;;4878511;29;20590;-84
2024/01/16 09:29:42;;;;;;;;;;;-2.00;99.90;;;;;;4863452;29;19915;-83
2024/01/16 09:32:07;;;;;;;;;;;-2.10;99.90;;;;;;4862727;29;19948;-84
2024/01/16 09:34:33;;;;;;;;;;;-2.00;99.90;;;;;;4878926;29;19915;-83
2024/01/16 09:37:02;;;;;;;;;;;-2.10;99.90;;;;;;4880288;29;19923;-83
2024/01/16 09:39:27;;;;;;;;;;;-2.00;99.90;;;;;;4862030;29;19935;-83
2024/01/16 09:41:53;;;;;;;;;;;-2.20;99.90;;;;;;4879052;29;19916;-83
2024/01/16 09:44:19;;;;;;;;;;;-2.30;99.90;;;;;;4878550;29;20010;-83
2024/01/16 09:46:47;;;;;;;;;;;-2.40;99.90;;;;;;4878404;29;19920;-83
2024/01/16 09:49:14;;;;;;;;;;;-2.40;99.90;;;;;;4877764;29;20387;-83
2024/01/16 09:51:43;;;;;;;;;;;-2.40;99.90;;;;;;4878268;29;19926;-83
2024/01/16 09:54:09;;;;;;;;;;;-2.30;99.90;;;;;;4878217;29;19920;-83
2024/01/16 09:56:40;;;;;;;;;;;-2.30;99.90;;;;;;4878488;29;19920;-83
2024/01/16 09:59:40;;;;;;;;;;;-2.40;99.90;;;;;;4878172;29;19988;-83
2024/01/16 10:02:08;;;;;;;;;;;-2.30;99.90;;;;;;4862927;29;19920;-83
2024/01/16 10:04:34;;;;;;;;;;;-2.20;99.90;;;;;;4878467;29;19916;-83
2024/01/16 10:07:01;;;;;;;;;;;-2.20;99.90;;;;;;4878174;29;19915;-83
2024/01/16 10:09:26;;;;;;;;;;;-2.00;99.90;;;;;;4878082;29;19924;-83
2024/01/16 10:11:52;;;;;;;;;;;-1.80;99.90;;;;;;4878142;29;19912;-83
2024/01/16 10:14:21;;;;;;;;;;;-1.50;99.90;;;;;;4877845;29;19940;-83
2024/01/16 10:17:02;;;;;;;;;;;-1.30;99.90;;;;;;4878265;29;19915;-83
2024/01/16 10:19:29;;;;;;;;;;;-1.30;99.90;;;;;;4877746;29;19926;-83
2024/01/16 10:22:02;;;;;;;;;;;-1.10;99.90;;;;;;4878131;29;19923;-83
2024/01/16 10:24:27;;;;;;;;;;;-1.20;99.90;;;;;;4878514;29;19923;-83
2024/01/16 10:27:00;;;;;;;;;;;-1.10;99.90;;;;;;4877672;29;19912;-83
2024/01/16 10:29:26;;;;;;;;;;;-0.80;99.90;;;;;;4876676;29;19920;-83
2024/01/16 10:31:52;;;;;;;;;;;-0.60;99.90;;;;;;4876897;29;19920;-83
2024/01/16 10:34:24;;;;;;;;;;;-0.60;99.90;;;;;;4876961;29;20384;-83
2024/01/16 10:36:50;;;;;;;;;;;-0.70;99.90;;;;;;4861683;29;20714;-83
2024/01/16 10:39:16;;;;;;;;;;;-0.60;99.90;;;;;;4876583;29;19924;-83
2024/01/16 10:41:42;;;;;;;;;;;-0.80;99.90;;;;;;4878138;29;20018;-83
2024/01/16 10:44:07;;;;;;;;;;;-1.10;99.90;;;;;;4877414;29;20407;-83
2024/01/16 10:46:35;;;;;;;;;;;-0.90;99.90;;;;;;4862079;29;19965;-83
2024/01/16 10:49:04;;;;;;;;;;;-0.90;99.90;;;;;;4877739;29;19943;-83
2024/01/16 10:51:30;;;;;;;;;;;-0.90;99.90;;;;;;4876846;29;19931;-83
2024/01/16 10:53:59;;;;;;;;;;;-0.80;99.90;;;;;;4876923;29;19963;-84
2024/01/16 10:56:27;;;;;;;;;;;-0.60;99.90;;;;;;4877284;29;20292;-83
2024/01/16 10:59:05;;;;;;;;;;;-0.60;99.90;;;;;;4877511;29;19927;-83
2024/01/16 11:01:31;;;;;;;;;;;-0.70;99.90;;;;;;4861819;29;19924;-83
2024/01/16 11:03:59;;;;;;;;;;;-0.40;99.90;;;;;;4861780;29;19935;-83
2024/01/16 11:06:24;;;;;;;;;;;-0.20;99.90;;;;;;4861704;29;19915;-83
2024/01/16 11:08:51;;;;;;;;;;;-0.10;99.90;;;;;;4877720;29;19942;-84
2024/01/16 11:11:17;;;;;;;;;;;-0.20;99.90;;;;;;4876860;29;19920;-84
2024/01/16 11:13:44;;;;;;;;;;;-0.20;99.90;;;;;;4876548;29;19916;-84
2024/01/16 11:16:13;;;;;;;;;;;-0.20;99.90;;;;;;4876781;29;20494;-83
2024/01/16 11:18:39;;;;;;;;;;;-0.20;99.90;;;;;;4876341;29;19968;-84
2024/01/16 11:21:09;;;;;;;;;;;-0.20;99.90;;;;;;4876079;29;19916;-84
2024/01/16 11:23:36;;;;;;;;;;;-0.30;99.90;;;;;;4876444;29;19923;-83
2024/01/16 11:26:20;;;;;;;;;;;-0.40;99.90;;;;;;4875888;29;19922;-84
2024/01/16 11:28:47;;;;;;;;;;;-0.60;99.90;;;;;;4876485;29;19971;-84
2024/01/16 11:31:31;;;;;;;;;;;-0.60;99.90;;;;;;4876265;29;19967;-84
2024/01/16 11:33:59;;;;;;;;;;;-0.60;99.90;;;;;;4876340;29;19971;-83
2024/01/16 11:36:57;;;;;;;;;;;-0.70;99.90;;;;;;4876530;29;19971;-84
2024/01/16 11:39:26;;;;;;;;;;;-0.80;99.90;;;;;;4818813;29;20402;-83
2024/01/16 11:41:52;;;;;;;;;;;-0.80;99.90;;;;;;4828608;29;19920;-82
2024/01/16 11:44:38;;;;;;;;;;;-0.70;99.90;;;;;;4876105;29;20026;-84
2024/01/16 11:47:04;;;;;;;;;;;-0.50;99.90;;;;;;4875931;29;19916;-83
2024/01/16 11:49:33;;;;;;;;;;;-0.20;99.90;;;;;;4877115;29;20395;-84
2024/01/16 11:51:59;;;;;;;;;;;-0.10;99.90;;;;;;4875545;29;19920;-84
2024/01/16 11:54:24;;;;;;;;;;;0.00;99.90;;;;;;4875905;29;19926;-83
2024/01/16 11:57:17;;;;;;;;;;;-0.10;99.90;;;;;;4875982;29;20363;-84
2024/01/16 11:59:53;;;;;;;;;;;-0.10;99.90;;;;;;4876294;29;19924;-84
2024/01/16 12:02:21;;;;;;;;;;;0.00;99.90;;;;;;4876138;29;19972;-84
2024/01/16 12:04:56;;;;;;;;;;;-0.10;99.90;;;;;;4860411;29;20014;-84
2024/01/16 12:07:22;;;;;;;;;;;0.00;99.90;;;;;;4860773;29;19920;-84
2024/01/16 12:09:48;;;;;;;;;;;0.20;99.90;;;;;;4876361;29;19920;-84
2024/01/16 12:12:15;;;;;;;;;;;0.50;99.90;;;;;;4876215;29;20482;-84
2024/01/16 12:14:56;;;;;;;;;;;0.60;99.90;;;;;;4876449;29;19941;-83
2024/01/16 12:17:22;;;;;;;;;;;0.80;99.90;;;;;;4876192;29;19926;-83
2024/01/16 12:19:49;;;;;;;;;;;0.90;99.90;;;;;;4860207;29;20463;-84
2024/01/16 12:22:16;;;;;;;;;;;0.80;99.90;;;;;;4877696;29;19920;-84
2024/01/16 12:24:42;;;;;;;;;;;0.50;99.90;;;;;;4876659;29;19951;-84
2024/01/16 12:30:37;;;;;;;;;;;0.20;99.90;;;;;;4877978;29;19950;-84
2024/01/16 12:33:02;;;;;;;;;;;-0.30;99.90;;;;;;4876235;29;19920;-84
2024/01/16 12:35:28;;;;;;;;;;;-0.50;99.90;;;;;;4876581;29;19931;-83
2024/01/16 12:37:58;;;;;;;;;;;-0.60;99.90;;;;;;4876353;29;20087;-84
2024/01/16 12:40:54;;;;;;;;;;;-0.80;99.90;;;;;;4875073;29;19919;-84
2024/01/16 12:43:21;;;;;;;;;;;-0.90;99.90;;;;;;4876426;29;20011;-83
2024/01/16 12:45:55;;;;;;;;;;;-1.00;99.90;;;;;;4875817;29;19951;-84
2024/01/16 12:48:23;;;;;;;;;;;-1.00;99.90;;;;;;4876333;29;20350;-84
2024/01/16 12:50:48;;;;;;;;;;;-1.00;99.90;;;;;;4876510;29;19962;-84
2024/01/16 12:53:16;;;;;;;;;;;-1.00;99.90;;;;;;4863821;29;19920;-84
2024/01/16 12:55:42;;;;;;;;;;;-1.00;99.90;;;;;;4880387;29;19916;-84
2024/01/16 12:58:12;;;;;;;;;;;-1.00;99.90;;;;;;4879224;29;19950;-84
2024/01/16 13:00:57;;;;;;;;;;;-1.00;99.90;;;;;;4879275;29;20311;-84
2024/01/16 13:03:30;;;;;;;;;;;-1.00;99.90;;;;;;4878077;29;19930;-84
2024/01/16 13:05:55;;;;;;;;;;;-0.90;99.90;;;;;;4878894;29;20015;-84
2024/01/16 13:08:22;;;;;;;;;;;-0.80;99.90;;;;;;4863552;29;20018;-84
2024/01/16 13:11:19;;;;;;;;;;;-0.70;99.90;;;;;;4878716;29;19935;-84
2024/01/16 13:13:47;;;;;;;;;;;-0.70;99.90;;;;;;4879039;29;19916;-84
2024/01/16 13:16:13;;;;;;;;;;;-0.80;99.90;;;;;;4879271;29;20015;-84
2024/01/16 13:18:39;;;;;;;;;;;-0.90;99.90;;;;;;4879781;29;19947;-84
2024/01/16 13:21:05;;;;;;;;;;;-1.00;99.90;;;;;;4879811;29;19949;-83
2024/01/16 13:23:31;;;;;;;;;;;-1.20;99.90;;;;;;4879123;29;20456;-84
2024/01/16 13:26:00;;;;;;;;;;;-1.30;99.90;;;;;;4878648;29;19920;-84
2024/01/16 13:28:26;;;;;;;;;;;-1.30;99.90;;;;;;4878286;29;19922;-84
2024/01/16 13:30:52;;;;;;;;;;;-1.20;99.90;;;;;;4878344;29;19912;-83
2024/01/16 13:33:17;;;;;;;;;;;-1.20;99.90;;;;;;4878772;29;19943;-84
2024/01/16 13:35:43;;;;;;;;;;;-1.30;99.90;;;;;;4878721;29;20395;-84
2024/01/16 13:38:10;;;;;;;;;;;-1.40;99.90;;;;;;4878968;29;20337;-84
2024/01/16 13:40:37;;;;;;;;;;;-1.40;99.90;;;;;;4878114;29;19920;-84
2024/01/16 13:43:03;;;;;;;;;;;-1.60;99.90;;;;;;4877821;29;20407;-84
2024/01/16 13:45:28;;;;;;;;;;;-1.70;99.90;;;;;;4878694;29;20014;-84
2024/01/16 13:47:54;;;;;;;;;;;-1.80;99.90;;;;;;4878425;29;20308;-84
2024/01/16 13:50:20;;;;;;;;;;;-1.90;99.90;;;;;;4878124;29;19916;-84
2024/01/16 13:52:45;;;;;;;;;;;-2.00;99.90;;;;;;4877958;29;19927;-84
2024/01/16 13:55:11;;;;;;;;;;;-2.10;99.90;;;;;;4862441;29;20026;-84
2024/01/16 13:57:37;;;;;;;;;;;-2.20;99.90;;;;;;4877135;29;19968;-84
2024/01/16 14:00:04;;;;;;;;;;;-2.40;99.90;;;;;;4878632;29;19935;-84
2024/01/16 14:02:38;;;;;;;;;;;-2.50;99.90;;;;;;4878873;29;20640;-83
2024/01/16 14:05:05;;;;;;;;;;;-2.50;99.90;;;;;;4878218;29;20276;-84
2024/01/16 14:07:31;;;;;;;;;;;-2.60;99.90;;;;;;4877486;29;19919;-84
2024/01/16 14:09:56;;;;;;;;;;;-2.60;99.90;;;;;;4877483;29;20653;-84
2024/01/16 14:12:23;;;;;;;;;;;-2.60;99.90;;;;;;4877742;29;19948;-84
2024/01/16 14:14:48;;;;;;;;;;;-2.60;99.90;;;;;;4861818;29;19923;-84
2024/01/16 14:17:14;;;;;;;;;;;-2.60;99.90;;;;;;4877623;29;20584;-84
2024/01/16 14:19:40;;;;;;;;;;;-2.60;99.90;;;;;;4877139;29;19934;-84
2024/01/16 14:22:06;;;;;;;;;;;-2.70;99.90;;;;;;4877657;29;20376;-83
2024/01/16 14:24:31;;;;;;;;;;;-2.90;99.90;;;;;;4878731;29;19916;-84
2024/01/16 14:27:06;;;;;;;;;;;-3.00;99.90;;;;;;4878136;29;19920;-84
2024/01/16 14:29:34;;;;;;;;;;;-3.10;99.90;;;;;;4877573;29;20284;-84
2024/01/16 14:32:00;;;;;;;;;;;-3.20;99.90;;;;;;4878039;29;20642;-84
2024/01/16 14:34:27;;;;;;;;;;;-3.30;99.90;;;;;;4877563;29;19923;-83
2024/01/16 14:36:53;;;;;;;;;;;-3.50;99.90;;;;;;4881742;29;19962;-84
2024/01/16 14:39:24;;;;;;;;;;;-3.60;99.90;;;;;;4877397;29;19983;-84